Time;durP1;ratioP1;P1;durP2;ratioP2;P2;SDS_P1;SDS_P2;PMS_P1;PMS_P2;Temp;Humidity;BMP_temperature;BMP_pressure;BME280_temperature;BME280_humidity;BME280_pressure;Samples;Min_cycle;Max_cycle;Signal;HPM_P1;HPM_P2
2023/03/02 00:03:32;;;;;;;17.13;13.37;;;;;;;0.40;48.10;99676.41;10427230;28;20346;-60
2023/03/02 00:08:35;;;;;;;16.07;13.27;;;;;;;0.90;47.86;99586.38;10417430;28;20242;-61
2023/03/02 00:13:37;;;;;;;17.63;14.07;;;;;;;0.60;47.79;99636.16;10436649;28;20281;-61
2023/03/02 00:18:39;;;;;;;17.07;13.03;;;;;;;-0.13;48.19;99759.38;10426418;28;20752;-60
2023/03/02 00:23:41;;;;;;;17.83;13.60;;;;;;;-0.13;49.24;99690.97;10430526;28;20866;-61
2023/03/02 00:28:42;;;;;;;17.73;13.60;;;;;;;-0.43;49.14;99744.94;10423459;28;20859;-60
2023/03/02 00:33:44;;;;;;;16.03;13.17;;;;;;;-0.06;48.22;99715.84;10429059;28;20235;-60
2023/03/02 00:38:46;;;;;;;18.30;14.00;;;;;;;1.09;47.52;99512.72;10430575;28;20241;-61
2023/03/02 00:43:49;;;;;;;18.60;14.53;;;;;;;-0.53;49.58;99738.69;10433043;28;20908;-60
2023/03/02 00:48:51;;;;;;;17.90;13.63;;;;;;;0.37;49.17;99556.38;10421803;28;20241;-60
2023/03/02 00:53:53;;;;;;;19.87;14.93;;;;;;;-0.17;48.92;99702.69;10427778;28;20245;-61
2023/03/02 00:58:54;;;;;;;17.90;14.23;;;;;;;-0.14;49.07;99670.06;10420926;28;20243;-61
2023/03/02 01:03:56;;;;;;;19.90;14.07;;;;;;;-0.07;48.81;99656.28;10429903;28;20742;-61
2023/03/02 01:08:57;;;;;;;18.80;13.50;;;;;;;-0.02;49.30;99637.53;10435725;28;20754;-61
2023/03/02 01:13:59;;;;;;;21.57;15.03;;;;;;;1.43;47.28;99444.78;10426169;28;20326;-57
2023/03/02 01:19:01;;;;;;;22.00;15.70;;;;;;;0.44;47.81;99631.28;10429047;28;20227;-61
2023/03/02 01:24:02;;;;;;;19.23;15.17;;;;;;;0.39;48.06;99596.56;10430539;28;20246;-61
2023/03/02 01:29:04;;;;;;;18.27;14.07;;;;;;;0.75;47.43;99534.00;10433183;28;21022;-61
2023/03/02 01:34:06;;;;;;;20.93;15.10;;;;;;;-0.44;49.04;99702.97;10425848;28;20234;-58
2023/03/02 01:39:07;;;;;;;18.83;13.67;;;;;;;0.06;48.44;99600.13;10425930;28;20692;-59
2023/03/02 01:44:31;;;;;;;20.23;15.00;;;;;;;1.16;47.17;99463.78;10426031;28;20346;-58
2023/03/02 01:49:36;;;;;;;20.33;14.13;;;;;;;1.03;47.59;99479.84;10439332;28;20231;-59
2023/03/02 01:54:41;;;;;;;20.97;15.00;;;;;;;-0.42;48.81;99719.47;10427958;28;20235;-58
2023/03/02 01:59:43;;;;;;;19.43;15.23;;;;;;;0.35;47.93;99589.06;10437614;28;20232;-57
2023/03/02 02:04:47;;;;;;;18.83;15.00;;;;;;;0.74;47.81;99520.94;10428881;28;20240;-58
2023/03/02 02:09:51;;;;;;;18.80;14.87;;;;;;;0.33;48.09;99577.84;10432652;28;20249;-59
2023/03/02 02:14:54;;;;;;;20.83;14.17;;;;;;;0.29;48.67;99532.47;10429484;28;20335;-58
2023/03/02 02:20:25;;;;;;;18.40;15.30;;;;;;;0.82;47.84;99469.28;10430276;28;20231;-61
2023/03/02 02:25:52;;;;;;;22.23;14.93;;;;;;;0.44;48.25;99554.09;10404381;28;20241;-60
2023/03/02 02:31:12;;;;;;;23.63;16.20;;;;;;;-0.66;49.10;99733.44;10429744;28;20835;-59
2023/03/02 02:36:19;;;;;;;19.17;14.63;;;;;;;-0.56;49.50;99686.31;10425923;28;20865;-60
2023/03/02 02:41:25;;;;;;;22.73;15.43;;;;;;;0.28;48.59;99530.81;10432270;28;20242;-61
2023/03/02 02:46:28;;;;;;;22.83;15.83;;;;;;;-0.50;50.10;99625.41;10432322;28;20284;-60
2023/03/02 02:51:29;;;;;;;21.33;15.30;;;;;;;0.25;49.05;99494.22;10430043;28;20231;-59
2023/03/02 02:56:35;;;;;;;22.00;14.80;;;;;;;-0.14;49.22;99557.78;10430539;28;20976;-58
2023/03/02 03:01:37;;;;;;;20.93;15.47;;;;;;;0.50;48.54;99451.75;10435595;28;20240;-60
2023/03/02 03:06:49;;;;;;;19.90;14.23;;;;;;;0.05;49.26;99525.59;10429648;28;20241;-61
2023/03/02 03:12:16;;;;;;;20.70;15.63;;;;;;;-0.02;49.39;99518.31;10430653;28;20246;-58
2023/03/02 03:17:17;;;;;;;18.60;14.23;;;;;;;0.62;48.13;99436.72;10432886;28;20252;-60
2023/03/02 03:22:19;;;;;;;22.93;16.43;;;;;;;-0.00;49.43;99532.19;10426678;28;20243;-56
2023/03/02 03:27:22;;;;;;;20.80;14.03;;;;;;;0.17;48.89;99515.03;10432911;28;20254;-60
2023/03/02 03:32:24;;;;;;;21.93;14.73;;;;;;;-0.58;49.41;99659.28;10423085;28;20236;-58
2023/03/02 03:37:26;;;;;;;23.73;15.43;;;;;;;-0.28;48.64;99639.56;10424835;28;20529;-58
2023/03/02 03:42:27;;;;;;;22.60;15.37;;;;;;;-0.22;49.34;99602.25;10426829;28;20237;-59
2023/03/02 03:47:29;;;;;;;20.80;14.97;;;;;;;-0.57;50.91;99581.28;10432655;28;20257;-59
2023/03/02 03:52:31;;;;;;;19.87;15.17;;;;;;;-1.14;51.10;99669.56;10428919;28;20239;-60
2023/03/02 03:57:32;;;;;;;20.90;16.23;;;;;;;-0.92;50.74;99619.75;10427525;28;20238;-59
2023/03/02 04:02:34;;;;;;;20.07;15.37;;;;;;;-0.80;50.59;99600.44;10432910;28;20261;-59
2023/03/02 04:07:36;;;;;;;20.13;15.43;;;;;;;-0.35;50.23;99507.72;10431819;28;20242;-59
2023/03/02 04:12:40;;;;;;;20.50;14.73;;;;;;;-0.39;49.71;99586.94;10432674;28;20286;-60
2023/03/02 04:17:43;;;;;;;20.93;15.43;;;;;;;-1.70;51.58;99738.25;10440398;28;20234;-59
2023/03/02 04:22:47;;;;;;;20.63;14.50;;;;;;;-0.87;51.01;99566.88;10430308;28;20712;-60
2023/03/02 04:27:50;;;;;;;21.33;14.50;;;;;;;-0.77;51.12;99527.59;10424198;28;20812;-59
2023/03/02 04:32:52;;;;;;;25.23;14.67;;;;;;;-0.93;50.99;99570.78;10430007;28;20396;-60
2023/03/02 04:37:54;;;;;;;19.20;15.03;;;;;;;-0.38;49.97;99489.53;10428686;28;20891;-67
2023/03/02 04:42:56;;;;;;;20.70;14.80;;;;;;;-1.11;50.53;99619.44;10431031;28;20743;-61
2023/03/02 04:47:57;;;;;;;19.30;14.13;;;;;;;-0.83;50.31;99535.00;10434273;28;20592;-60
2023/03/02 04:52:59;;;;;;;19.03;14.43;;;;;;;-1.97;51.41;99716.44;10430697;28;20736;-60
2023/03/02 04:58:01;;;;;;;19.23;14.67;;;;;;;-0.84;50.41;99512.31;10435496;28;20818;-61
2023/03/02 05:05:31;;;;;;;22.57;14.03;;;;;;;-1.60;52.84;99469.84;10512334;27;20320;-61
2023/03/02 05:10:33;;;;;;;22.97;15.23;;;;;;;-2.02;52.97;99597.06;10442191;28;20251;-59
2023/03/02 05:15:37;;;;;;;20.70;14.50;;;;;;;-2.01;52.78;99594.31;10470439;28;20400;-60
2023/03/02 05:20:39;;;;;;;20.27;14.93;;;;;;;-1.85;52.08;99594.09;10438386;28;20238;-61
2023/03/02 05:25:41;;;;;;;20.93;14.57;;;;;;;-2.87;53.52;99728.53;10471526;28;20729;-60
2023/03/02 05:30:42;;;;;;;17.63;13.83;;;;;;;-1.99;52.57;99571.44;10471772;28;20246;-59
2023/03/02 05:35:44;;;;;;;17.87;13.53;;;;;;;-2.70;53.27;99664.56;10438737;28;20720;-59
2023/03/02 05:40:47;;;;;;;18.07;13.53;;;;;;;-2.26;53.53;99555.03;10428619;28;20604;-60
2023/03/02 05:45:49;;;;;;;20.03;14.13;;;;;;;-1.96;52.74;99545.00;10434361;28;20257;-61
2023/03/02 05:50:51;;;;;;;18.97;13.87;;;;;;;-1.89;51.78;99589.19;10425644;28;20332;-60
2023/03/02 05:55:53;;;;;;;17.97;14.20;;;;;;;-1.26;51.91;99453.34;10419299;28;20259;-60
2023/03/02 06:00:54;;;;;;;17.87;13.77;;;;;;;-1.39;51.76;99480.53;10427192;28;20623;-61
2023/03/02 06:05:56;;;;;;;19.60;14.80;;;;;;;-0.57;50.19;99419.16;10432247;28;20242;-60
2023/03/02 06:10:58;;;;;;;17.07;13.20;;;;;;;-1.67;51.53;99601.59;10424978;28;20244;-60
2023/03/02 06:15:59;;;;;;;17.87;14.60;;;;;;;-2.00;51.74;99637.97;10400065;28;20257;-61
2023/03/02 06:21:02;;;;;;;22.17;14.33;;;;;;;-1.31;51.70;99503.59;10402522;28;20248;-60
2023/03/02 06:26:09;;;;;;;18.60;13.77;;;;;;;-0.90;50.98;99459.41;10398420;28;20604;-61
2023/03/02 06:31:10;;;;;;;20.63;14.77;;;;;;;-1.86;51.90;99644.06;10387903;28;20317;-60
2023/03/02 06:36:13;;;;;;;19.07;14.00;;;;;;;-1.09;51.01;99502.81;10394300;28;20242;-61
2023/03/02 06:41:15;;;;;;;17.30;13.00;;;;;;;-0.72;50.70;99450.09;10391733;28;20237;-61
2023/03/02 06:46:17;;;;;;;16.97;12.77;;;;;;;-0.85;50.04;99581.56;10397097;28;20239;-60
2023/03/02 06:51:19;;;;;;;19.47;14.03;;;;;;;-0.51;50.49;99484.41;10395053;28;20239;-61
2023/03/02 06:56:20;;;;;;;19.07;13.13;;;;;;;-0.58;50.42;99512.09;10391638;28;20298;-61
2023/03/02 07:01:22;;;;;;;19.27;14.53;;;;;;;-1.87;51.67;99760.41;10394239;28;20740;-60
2023/03/02 07:06:23;;;;;;;19.20;13.47;;;;;;;-0.34;50.63;99475.19;10404463;28;20239;-61
2023/03/02 07:11:25;;;;;;;17.70;13.67;;;;;;;-0.52;51.12;99506.41;10394263;28;20709;-61
2023/03/02 07:16:27;;;;;;;19.93;13.90;;;;;;;-0.55;50.63;99571.50;10394734;28;20249;-61
2023/03/02 07:21:29;;;;;;;19.77;14.47;;;;;;;-0.56;50.58;99559.31;10396277;28;20243;-61
2023/03/02 07:26:31;;;;;;;22.53;15.90;;;;;;;-1.39;51.14;99742.22;10391019;28;20321;-61
2023/03/02 07:31:33;;;;;;;21.00;15.67;;;;;;;-0.55;50.21;99596.00;10400007;28;20246;-61
2023/03/02 07:36:35;;;;;;;21.17;15.17;;;;;;;0.31;49.85;99484.00;10399989;28;20317;-60
2023/03/02 07:41:37;;;;;;;18.43;14.47;;;;;;;0.57;49.01;99512.63;10404609;28;20252;-61
2023/03/02 07:46:38;;;;;;;23.60;16.47;;;;;;;-0.48;50.76;99662.09;10392484;28;20658;-61
2023/03/02 07:51:40;;;;;;;18.30;14.43;;;;;;;0.12;49.65;99618.88;10391953;28;20263;-61
2023/03/02 07:56:42;;;;;;;18.83;15.20;;;;;;;-0.40;50.59;99691.28;10438147;28;20780;-61
2023/03/02 08:01:44;;;;;;;19.00;14.67;;;;;;;0.75;49.20;99572.66;10390886;28;20718;-60
2023/03/02 08:06:45;;;;;;;21.20;13.47;;;;;;;0.37;49.20;99676.66;10403593;28;20323;-60
2023/03/02 08:11:47;;;;;;;19.57;14.40;;;;;;;0.79;49.00;99603.06;10392563;28;20231;-60
2023/03/02 08:16:51;;;;;;;19.53;14.40;;;;;;;0.48;49.11;99672.22;10397052;28;21112;-60
2023/03/02 08:21:53;;;;;;;16.63;13.20;;;;;;;0.14;49.25;99755.63;10395831;28;20231;-60
2023/03/02 08:26:55;;;;;;;21.33;15.03;;;;;;;1.94;47.88;99535.34;10401413;28;20228;-61
2023/03/02 08:31:57;;;;;;;18.83;14.00;;;;;;;1.17;48.49;99696.59;10390203;28;20232;-61
2023/03/02 08:36:59;;;;;;;19.90;14.20;;;;;;;1.41;48.30;99656.88;10392520;28;20231;-60
2023/03/02 08:42:01;;;;;;;21.40;16.27;;;;;;;1.27;49.06;99633.41;10392669;28;20255;-60
2023/03/02 08:47:02;;;;;;;20.30;15.23;;;;;;;1.33;48.29;99690.94;10382342;28;20698;-61
2023/03/02 08:52:05;;;;;;;20.23;15.47;;;;;;;0.91;48.79;99756.69;10392813;28;20250;-61
2023/03/02 08:57:10;;;;;;;21.77;16.13;;;;;;;0.83;49.08;99767.81;10388580;28;20240;-60
2023/03/02 09:02:12;;;;;;;21.77;15.60;;;;;;;1.66;48.10;99668.84;10384499;28;22013;-61
2023/03/02 09:07:16;;;;;;;19.47;15.37;;;;;;;2.56;47.36;99579.28;10383753;28;20307;-60
2023/03/02 09:12:17;;;;;;;21.70;15.93;;;;;;;1.61;48.63;99727.25;10390537;28;20244;-60
2023/03/02 09:17:19;;;;;;;23.97;16.17;;;;;;;1.91;47.86;99708.97;10390902;28;20776;-61
2023/03/02 09:22:21;;;;;;;25.40;16.50;;;;;;;1.92;47.79;99715.94;10381769;28;20232;-60
2023/03/02 09:27:22;;;;;;;22.53;16.03;;;;;;;2.15;47.98;99680.47;10382136;28;20228;-60
2023/03/02 09:32:24;;;;;;;22.80;16.13;;;;;;;1.65;48.11;99785.84;10390150;28;20240;-61
2023/03/02 09:37:27;;;;;;;23.80;16.07;;;;;;;2.25;47.54;99735.13;10397159;28;20339;-60
2023/03/02 09:42:48;;;;;;;19.70;16.17;;;;;;;4.19;45.27;99617.19;10347723;28;20359;-61
2023/03/02 09:48:35;;;;;;;24.10;15.97;;;;;;;3.35;46.53;99694.69;10400820;28;20241;-61
2023/03/02 09:53:50;;;;;;;21.73;15.80;;;;;;;3.04;46.36;99756.47;10357870;28;20244;-60
2023/03/02 09:59:03;;;;;;;24.33;16.60;;;;;;;3.84;45.77;99679.59;10398577;28;20319;-61
2023/03/02 10:04:17;;;;;;;23.60;16.40;;;;;;;3.76;45.78;99733.22;10401963;28;20228;-61
2023/03/02 10:09:19;;;;;;;22.07;16.40;;;;;;;3.35;46.32;99751.06;10400948;28;20241;-61
2023/03/02 10:14:30;;;;;;;22.13;15.67;;;;;;;3.60;46.00;99717.94;10407776;28;20367;-59
2023/03/02 10:19:41;;;;;;;22.60;15.83;;;;;;;3.43;45.46;99805.94;10408166;28;20259;-61
2023/03/02 10:24:56;;;;;;;23.03;16.60;;;;;;;4.27;45.40;99709.16;10406203;28;20248;-61
2023/03/02 10:30:20;;;;;;;22.33;16.13;;;;;;;4.45;44.57;99720.69;10391414;28;20230;-60
2023/03/02 10:35:25;;;;;;;22.20;16.67;;;;;;;4.53;44.39;99768.50;10393637;28;20233;-60
2023/03/02 10:40:44;;;;;;;25.67;16.60;;;;;;;3.67;46.08;99791.50;10389663;28;20237;-61
2023/03/02 10:46:06;;;;;;;21.53;15.17;;;;;;;4.73;44.66;99728.66;10396059;28;20589;-60
2023/03/02 10:51:26;;;;;;;24.13;16.03;;;;;;;5.17;44.51;99704.94;10395865;28;20239;-61
2023/03/02 10:56:29;;;;;;;20.33;16.27;;;;;;;4.11;44.63;99836.88;10393862;28;20593;-60
2023/03/02 11:06:30;;;;;;;20.87;16.63;;;;;;;3.12;47.24;99792.78;10327934;28;20845;-60
2023/03/02 11:11:33;;;;;;;27.10;18.03;;;;;;;3.57;47.26;99749.13;10301419;28;20759;-60
2023/03/02 11:16:35;;;;;;;23.97;16.53;;;;;;;3.70;46.30;99751.47;10336886;28;20274;-61
2023/03/02 11:21:57;;;;;;;22.83;16.63;;;;;;;4.91;45.39;99696.84;10344422;28;20240;-61
2023/03/02 11:27:06;;;;;;;20.00;15.17;;;;;;;4.15;45.95;99769.41;10354819;28;20229;-61
2023/03/02 11:32:08;;;;;;;20.93;16.27;;;;;;;4.33;45.74;99756.28;10344552;28;20272;-61
2023/03/02 11:37:20;;;;;;;20.50;16.23;;;;;;;3.99;46.13;99773.47;10348251;28;20923;-61
2023/03/02 11:42:32;;;;;;;21.13;15.77;;;;;;;4.99;45.91;99698.78;10345720;28;20242;-61
2023/03/02 11:47:36;;;;;;;23.17;15.43;;;;;;;5.11;45.27;99713.47;10347913;28;20680;-61
2023/03/02 11:52:45;;;;;;;21.20;16.63;;;;;;;4.42;46.26;99787.22;10345489;28;20244;-61
2023/03/02 11:58:12;;;;;;;20.87;15.27;;;;;;;4.58;47.15;99757.47;10343101;28;20229;-61
2023/03/02 12:03:14;;;;;;;21.33;15.80;;;;;;;4.32;46.70;99774.00;10349940;28;20252;-62
2023/03/02 12:08:19;;;;;;;23.27;16.13;;;;;;;5.67;45.06;99666.38;10355760;28;20241;-61
2023/03/02 12:13:28;;;;;;;21.20;16.30;;;;;;;5.83;44.78;99671.81;10342259;28;20242;-61
2023/03/02 12:18:42;;;;;;;20.70;16.43;;;;;;;4.75;46.29;99761.16;10306567;28;20886;-61
2023/03/02 12:23:44;;;;;;;22.63;16.33;;;;;;;4.75;46.19;99774.41;10326195;28;20247;-61
2023/03/02 12:29:06;;;;;;;23.37;16.67;;;;;;;5.13;45.19;99716.81;10314619;28;20287;-61
2023/03/02 12:34:50;;;;;;;26.40;16.40;;;;;;;6.67;43.25;99632.16;10320494;28;20242;-61
2023/03/02 12:40:16;;;;;;;22.53;17.00;;;;;;;4.94;45.53;99769.00;10313516;28;20236;-61
2023/03/02 12:45:23;;;;;;;22.47;17.00;;;;;;;6.10;44.43;99677.94;10314585;28;20245;-61
2023/03/02 12:50:29;;;;;;;20.90;17.20;;;;;;;6.50;43.42;99641.94;10307837;28;20242;-61
2023/03/02 12:55:33;;;;;;;24.33;17.73;;;;;;;5.70;44.25;99729.78;10313981;28;20241;-62
2023/03/02 13:00:34;;;;;;;20.33;16.03;;;;;;;5.91;44.79;99704.72;10321751;28;20233;-62
2023/03/02 13:05:36;;;;;;;22.90;16.10;;;;;;;5.88;44.03;99712.00;10318799;28;20237;-61
2023/03/02 13:10:47;;;;;;;22.20;15.17;;;;;;;5.41;44.72;99761.88;10315053;28;21059;-60
2023/03/02 13:16:07;;;;;;;23.30;16.90;;;;;;;5.60;44.90;99739.66;10319481;28;20240;-61
2023/03/02 13:21:13;;;;;;;22.30;16.30;;;;;;;6.63;43.34;99670.69;10309202;28;20249;-62
2023/03/02 13:26:41;;;;;;;22.17;16.43;;;;;;;6.42;43.70;99687.09;10317926;28;20737;-62
2023/03/02 13:31:43;;;;;;;22.97;16.70;;;;;;;6.44;43.55;99701.88;10309497;28;20239;-61
2023/03/02 13:36:45;;;;;;;21.67;15.43;;;;;;;5.48;44.97;99745.16;10319893;28;20302;-61
2023/03/02 13:41:53;;;;;;;23.73;16.93;;;;;;;7.16;42.94;99631.44;10318535;28;20238;-61
2023/03/02 13:46:55;;;;;;;21.47;16.57;;;;;;;6.65;43.02;99689.16;10317253;28;20246;-61
2023/03/02 13:52:28;;;;;;;20.57;15.80;;;;;;;6.88;43.26;99679.59;10319211;28;20252;-62
2023/03/02 13:57:31;;;;;;;23.00;16.13;;;;;;;6.16;44.16;99733.13;10313082;28;20261;-62
2023/03/02 14:02:33;;;;;;;21.70;15.87;;;;;;;6.53;43.05;99704.56;10312235;28;20229;-62
2023/03/02 14:07:35;;;;;;;21.30;16.57;;;;;;;6.50;44.09;99692.44;10309840;28;20719;-61
2023/03/02 14:12:37;;;;;;;20.57;16.33;;;;;;;6.95;42.79;99656.69;10313627;28;20229;-61
2023/03/02 14:17:39;;;;;;;34.10;22.17;;;;;;;6.77;43.28;99682.59;10323825;28;20253;-61
2023/03/02 14:22:43;;;;;;;23.90;16.33;;;;;;;6.85;42.91;99673.78;10310267;28;21039;-61
2023/03/02 14:27:46;;;;;;;22.07;16.23;;;;;;;7.15;41.53;99670.50;10307562;28;20226;-62
2023/03/02 14:32:47;;;;;;;25.40;17.17;;;;;;;7.14;42.83;99684.00;10303741;28;20242;-60
2023/03/02 14:37:49;;;;;;;20.07;14.27;;;;;;;5.59;44.00;99744.16;10314163;28;20721;-60
2023/03/02 14:42:52;;;;;;;18.97;14.20;;;;;;;5.67;43.56;99741.56;10312018;28;20237;-61
2023/03/02 14:47:53;;;;;;;22.67;18.00;;;;;;;7.29;42.68;99665.53;10313260;28;20325;-61
2023/03/02 14:52:56;;;;;;;21.33;14.73;;;;;;;7.86;41.55;99649.53;10312319;28;20244;-61
2023/03/02 14:58:02;;;;;;;20.70;16.30;;;;;;;7.09;41.80;99678.31;10319413;28;20233;-60
2023/03/02 15:03:04;;;;;;;26.77;15.70;;;;;;;6.58;42.82;99721.72;10304671;28;20242;-62
2023/03/02 15:08:10;;;;;;;23.77;16.70;;;;;;;7.22;42.40;99670.69;10316041;28;20234;-62
2023/03/02 15:13:13;;;;;;;21.13;15.03;;;;;;;8.33;40.77;99628.41;10321032;28;20352;-61
2023/03/02 15:18:18;;;;;;;20.20;14.63;;;;;;;7.50;41.67;99691.69;10312442;28;20252;-61
2023/03/02 15:23:20;;;;;;;17.50;13.53;;;;;;;7.79;41.00;99688.47;10313727;28;20340;-61
2023/03/02 15:28:21;;;;;;;23.60;14.93;;;;;;;8.39;40.86;99657.88;10315300;28;20242;-60
2023/03/02 15:33:23;;;;;;;21.07;14.53;;;;;;;8.95;39.91;99651.63;10307582;28;20290;-61
2023/03/02 15:38:25;;;;;;;19.60;14.03;;;;;;;8.57;40.15;99657.66;10308687;28;20241;-60
2023/03/02 15:43:26;;;;;;;20.27;14.27;;;;;;;7.92;41.36;99688.00;10315359;28;20234;-59
2023/03/02 15:48:28;;;;;;;18.13;14.60;;;;;;;8.79;40.52;99653.34;10317539;28;20238;-60
2023/03/02 15:53:33;;;;;;;21.33;14.63;;;;;;;8.30;41.27;99682.91;10317860;28;20233;-60
2023/03/02 15:58:39;;;;;;;22.83;15.53;;;;;;;7.25;41.85;99690.81;10316599;28;20245;-63
2023/03/02 16:03:42;;;;;;;20.30;15.17;;;;;;;8.09;41.49;99691.47;10321092;28;20314;-63
2023/03/02 16:08:44;;;;;;;18.30;14.27;;;;;;;8.60;40.51;99677.78;10328277;28;20321;-64
2023/03/02 16:13:45;;;;;;;23.50;16.37;;;;;;;7.01;42.70;99713.75;10319192;28;20635;-63
2023/03/02 16:18:51;;;;;;;21.73;16.20;;;;;;;7.49;43.62;99706.81;10324860;28;20249;-64
2023/03/02 16:23:55;;;;;;;26.77;16.60;;;;;;;7.66;43.61;99661.53;10327793;28;20247;-63
2023/03/02 16:28:58;;;;;;;20.20;15.57;;;;;;;5.86;45.65;99767.13;10316444;28;20770;-59
2023/03/02 16:34:04;;;;;;;21.13;15.90;;;;;;;6.31;44.66;99713.94;10295980;28;20218;-59
2023/03/02 16:39:08;;;;;;;24.53;16.97;;;;;;;6.90;44.47;99667.00;10288827;28;20296;-59
2023/03/02 16:44:12;;;;;;;24.13;17.30;;;;;;;6.86;44.10;99694.91;10319022;28;20234;-60
2023/03/02 16:49:14;;;;;;;24.23;18.23;;;;;;;6.93;44.08;99701.22;10317294;28;20257;-59
2023/03/02 16:54:16;;;;;;;22.70;16.47;;;;;;;7.04;44.22;99670.00;10309148;28;20647;-63
2023/03/02 16:59:17;;;;;;;22.23;17.10;;;;;;;6.55;44.52;99707.88;10311969;28;20248;-61
2023/03/02 17:04:20;;;;;;;21.93;14.73;;;;;;;6.50;44.17;99711.03;10308766;28;20246;-60
2023/03/02 17:09:22;;;;;;;25.20;18.23;;;;;;;5.55;46.20;99760.50;10325222;28;20237;-60
2023/03/02 17:14:24;;;;;;;23.47;16.40;;;;;;;6.52;44.89;99694.94;10316734;28;20229;-62
2023/03/02 17:19:28;;;;;;;25.30;17.23;;;;;;;4.94;46.89;99808.78;10326311;28;20854;-60
2023/03/02 17:24:30;;;;;;;24.73;17.50;;;;;;;4.50;47.78;99826.25;10318565;28;20234;-62
2023/03/02 17:29:31;;;;;;;22.80;16.97;;;;;;;5.69;46.56;99710.38;10326982;28;20295;-62
2023/03/02 17:34:33;;;;;;;23.57;17.70;;;;;;;6.79;44.91;99633.53;10321797;28;20233;-58
2023/03/02 17:39:35;;;;;;;23.50;17.00;;;;;;;6.95;44.24;99656.69;10323215;28;20613;-61
2023/03/02 17:44:39;;;;;;;24.53;17.40;;;;;;;6.55;44.75;99697.25;10315106;28;20234;-61
2023/03/02 17:49:44;;;;;;;26.67;18.60;;;;;;;6.13;44.84;99745.91;10312583;28;20318;-64
2023/03/02 17:54:45;;;;;;;25.43;17.77;;;;;;;6.07;45.10;99756.13;10321920;28;20241;-65
2023/03/02 17:59:50;;;;;;;27.30;18.77;;;;;;;7.03;44.27;99668.34;10318424;28;20240;-60
2023/03/02 18:04:52;;;;;;;24.73;18.37;;;;;;;5.57;45.85;99808.97;10324168;28;20257;-60
2023/03/02 18:09:53;;;;;;;30.57;19.27;;;;;;;6.11;45.36;99738.09;10316343;28;20249;-61
2023/03/02 18:14:55;;;;;;;23.87;17.77;;;;;;;6.01;45.15;99754.13;10318241;28;20244;-60
2023/03/02 18:19:57;;;;;;;30.50;21.90;;;;;;;6.16;44.81;99738.44;10313037;28;20314;-60
2023/03/02 18:24:58;;;;;;;29.70;19.77;;;;;;;4.81;47.07;99844.56;10320425;28;20259;-60
2023/03/02 18:30:00;;;;;;;32.10;21.83;;;;;;;6.09;44.85;99755.97;10316141;28;20606;-59
2023/03/02 18:35:02;;;;;;;35.87;24.80;;;;;;;5.84;44.85;99763.78;10317360;28;20250;-60
2023/03/02 18:40:05;;;;;;;32.67;23.00;;;;;;;5.66;45.27;99805.44;10323117;28;20249;-59
2023/03/02 18:45:07;;;;;;;35.40;25.50;;;;;;;5.17;45.55;99847.34;10314711;28;20917;-60
2023/03/02 18:50:10;;;;;;;33.60;24.90;;;;;;;4.91;46.72;99814.41;10313543;28;20242;-60
2023/03/02 18:55:12;;;;;;;27.83;19.80;;;;;;;5.41;45.85;99786.59;10311851;28;20226;-59
2023/03/02 19:00:18;;;;;;;29.23;21.10;;;;;;;4.94;46.31;99843.25;10320083;28;20233;-60
2023/03/02 19:05:20;;;;;;;28.93;21.53;;;;;;;5.56;45.65;99764.84;10313040;28;20666;-60
2023/03/02 19:10:22;;;;;;;32.80;22.50;;;;;;;5.28;45.61;99805.53;10310409;28;20783;-59
2023/03/02 19:15:23;;;;;;;31.73;22.30;;;;;;;4.42;47.37;99881.78;10301779;28;20313;-59
2023/03/02 19:20:26;;;;;;;27.80;20.87;;;;;;;5.05;46.35;99814.88;10309864;28;20240;-59
2023/03/02 19:25:28;;;;;;;28.17;20.80;;;;;;;4.16;47.51;99869.09;10307316;28;20234;-60
2023/03/02 19:30:29;;;;;;;30.37;21.47;;;;;;;4.37;46.89;99847.75;10314134;28;20237;-60
2023/03/02 19:35:32;;;;;;;32.87;23.00;;;;;;;4.54;47.42;99815.22;10324245;28;20233;-60
2023/03/02 19:40:35;;;;;;;39.03;23.83;;;;;;;4.63;47.68;99775.59;10323173;28;20316;-59
2023/03/02 19:45:37;;;;;;;51.23;31.23;;;;;;;4.62;47.89;99789.81;10311576;28;20233;-59
2023/03/02 19:50:39;;;;;;;31.83;22.70;;;;;;;4.45;47.98;99823.19;10306220;28;20320;-59
2023/03/02 19:55:41;;;;;;;31.03;19.73;;;;;;;4.87;47.06;99780.34;10313893;28;20238;-60
2023/03/02 20:00:44;;;;;;;30.67;21.00;;;;;;;4.81;47.23;99797.69;10275517;28;20245;-60
2023/03/02 20:05:46;;;;;;;28.97;21.17;;;;;;;4.10;48.58;99856.38;10318598;28;21068;-58
2023/03/02 20:10:48;;;;;;;29.73;21.73;;;;;;;4.43;48.06;99819.88;10322413;28;20238;-58
2023/03/02 20:15:50;;;;;;;32.40;22.57;;;;;;;3.93;48.73;99869.34;10320653;28;20229;-60
2023/03/02 20:20:52;;;;;;;31.60;22.90;;;;;;;5.15;46.76;99759.97;10318116;28;20237;-60
2023/03/02 20:25:53;;;;;;;31.97;21.87;;;;;;;5.08;46.23;99825.19;10328108;28;20241;-59
2023/03/02 20:30:59;;;;;;;34.53;23.10;;;;;;;4.79;46.67;99838.56;10326033;28;20230;-59
2023/03/02 20:36:02;;;;;;;38.60;24.80;;;;;;;4.39;46.94;99867.00;10318406;28;20325;-59
2023/03/02 20:41:05;;;;;;;35.43;25.07;;;;;;;4.01;48.28;99906.56;10328214;28;21066;-59
2023/03/02 20:46:08;;;;;;;38.03;24.53;;;;;;;5.66;45.52;99744.38;10322746;28;20241;-59
2023/03/02 20:51:11;;;;;;;32.10;22.70;;;;;;;4.55;46.71;99872.53;10320596;28;20238;-60
2023/03/02 20:56:17;;;;;;;33.80;24.50;;;;;;;4.70;46.97;99842.94;10323500;28;20244;-59
2023/03/02 21:01:19;;;;;;;33.57;24.33;;;;;;;4.80;46.91;99846.38;10320015;28;20229;-60
2023/03/02 21:06:21;;;;;;;36.43;24.23;;;;;;;4.29;47.53;99888.19;10318482;28;20241;-60
2023/03/02 21:11:23;;;;;;;35.77;25.93;;;;;;;4.94;46.28;99808.78;10314580;28;20591;-60
2023/03/02 21:16:28;;;;;;;34.27;24.73;;;;;;;5.23;45.79;99847.56;10316940;28;20779;-60
2023/03/02 21:21:30;;;;;;;33.50;23.03;;;;;;;3.31;48.61;99982.47;10318006;28;20241;-60
2023/03/02 21:26:44;;;;;;;30.90;19.90;;;;;;;1.89;52.00;99998.56;10327390;28;20240;-62
2023/03/02 21:31:46;;;;;;;30.07;20.90;;;;;;;4.32;48.52;99767.84;10313482;28;20249;-59
2023/03/02 21:36:52;;;;;;;35.53;21.53;;;;;;;5.04;46.50;99771.59;10313935;28;20237;-59
2023/03/02 21:41:54;;;;;;;32.33;22.03;;;;;;;4.94;46.11;99794.69;10312727;28;20732;-59
2023/03/02 21:46:56;;;;;;;30.60;21.77;;;;;;;4.88;46.09;99806.72;10325329;28;20234;-60
2023/03/02 21:51:57;;;;;;;32.10;21.87;;;;;;;5.19;45.91;99789.69;10318021;28;20252;-60
2023/03/02 21:56:59;;;;;;;29.70;22.80;;;;;;;3.23;48.88;99934.66;10310668;28;20245;-59
2023/03/02 22:02:01;;;;;;;31.47;20.80;;;;;;;4.45;47.47;99802.81;10318436;28;20726;-60
2023/03/02 22:07:02;;;;;;;32.83;22.77;;;;;;;5.30;45.96;99757.59;10316923;28;20593;-59
2023/03/02 22:12:12;;;;;;;30.77;22.17;;;;;;;3.01;49.33;99896.84;10310702;28;20234;-59
2023/03/02 22:17:23;;;;;;;31.43;20.43;;;;;;;2.85;49.99;99878.78;10310870;28;20229;-58
2023/03/02 22:22:28;;;;;;;33.73;22.60;;;;;;;2.55;51.01;99861.09;10303694;28;20230;-60
2023/03/02 22:27:30;;;;;;;31.17;22.23;;;;;;;2.64;50.01;99896.50;10302807;28;20272;-60
2023/03/02 22:32:37;;;;;;;36.50;23.57;;;;;;;3.73;48.92;99788.25;10311250;28;20237;-60
2023/03/02 22:37:38;;;;;;;34.03;25.20;;;;;;;2.51;49.88;99933.66;10301154;28;20238;-60
2023/03/02 22:42:40;;;;;;;34.67;24.00;;;;;;;4.01;48.90;99742.38;10283358;28;20244;-61
2023/03/02 22:47:43;;;;;;;34.90;24.87;;;;;;;3.11;49.30;99896.91;10304434;28;20234;-60
2023/03/02 22:52:45;;;;;;;34.50;24.70;;;;;;;3.23;49.18;99872.03;10302012;28;20238;-59
2023/03/02 22:57:46;;;;;;;37.50;24.60;;;;;;;4.11;47.87;99783.91;10307795;28;20238;-60
2023/03/02 23:02:55;;;;;;;41.63;26.27;;;;;;;4.14;47.21;99816.25;10311572;28;20250;-60
2023/03/02 23:08:29;;;;;;;43.63;28.83;;;;;;;2.68;49.71;99901.38;10318960;28;20237;-60
2023/03/02 23:13:38;;;;;;;48.30;32.60;;;;;;;2.93;49.86;99854.38;10314089;28;20237;-59
2023/03/02 23:18:41;;;;;;;35.83;25.90;;;;;;;4.53;47.28;99768.50;10311662;28;20764;-60
2023/03/02 23:23:43;;;;;;;39.07;27.47;;;;;;;3.94;47.85;99826.03;10311507;28;20233;-60